Weather at John F Kennedy International Airport

Public forecast

Using degrees Fahrenheit for public forecast. Weather courtesy of forecast.io.

Current aviation weather report (METAR) for John F Kennedy International Airport

Retrieved 2020/11/28 18:51 UTC (13 minutes ago):

KJFK 281851Z 27012KT 10SM FEW045 BKN065 12/03 A2996 RMK AO2 SLP144 T01220033

Aviation forecast (TAF) for John F Kennedy International Airport

Retrieved 2020/11/28 18:37 UTC (27 minutes ago):

TAF KJFK 281733Z 2818/2924 26010KT P6SM SCT040 FM282000 28010G15KT P6SM BKN050 FM290200 31010KT P6SM FEW050 FM290900 26006KT P6SM FEW060 FEW100 FM291700 24009KT P6SM FEW060 FEW100